createdAt,value
2022-12-29T00:00:46.125Z,12.50
2022-12-29T00:03:16.455Z,12.60
2022-12-29T00:05:51.771Z,12.70
2022-12-29T00:08:45.361Z,12.70
2022-12-29T00:11:52.402Z,12.50
2022-12-29T00:14:35.877Z,12.60
2022-12-29T00:17:06.651Z,12.70
2022-12-29T00:19:49.302Z,12.70
2022-12-29T00:22:32.331Z,12.60
2022-12-29T00:25:15.673Z,12.60
2022-12-29T00:28:06.629Z,12.70
2022-12-29T00:30:51.845Z,12.80
2022-12-29T00:33:36.210Z,12.80
2022-12-29T00:36:09.086Z,12.80
2022-12-29T00:38:56.959Z,12.90
2022-12-29T00:41:39.443Z,13.00
2022-12-29T00:44:15.511Z,12.90
2022-12-29T00:46:46.607Z,12.90
2022-12-29T00:49:29.821Z,12.90
2022-12-29T00:52:01.991Z,13.00
2022-12-29T00:54:33.352Z,13.00
2022-12-29T00:57:05.557Z,13.20
2022-12-29T00:59:39.333Z,13.10
2022-12-29T01:02:10.293Z,13.00
2022-12-29T01:04:41.141Z,12.60
2022-12-29T01:07:11.239Z,13.00
2022-12-29T01:09:53.755Z,13.00
2022-12-29T01:12:41.830Z,12.90
2022-12-29T01:15:17.173Z,12.90
2022-12-29T01:17:48.596Z,13.00
2022-12-29T01:20:18.962Z,13.00
2022-12-29T01:22:49.061Z,13.10
2022-12-29T01:25:19.267Z,13.10
2022-12-29T01:27:49.496Z,13.20
2022-12-29T01:30:22.229Z,13.00
2022-12-29T01:32:52.447Z,13.10
2022-12-29T01:35:22.615Z,13.10
2022-12-29T01:37:52.780Z,13.00
2022-12-29T01:40:23.401Z,13.10
2022-12-29T01:42:53.540Z,13.00
2022-12-29T01:45:26.642Z,13.10
2022-12-29T01:48:00.620Z,13.10
2022-12-29T01:50:34.776Z,13.20
2022-12-29T01:53:09.941Z,13.10
2022-12-29T01:55:44.463Z,13.20
2022-12-29T01:58:17.578Z,13.20
2022-12-29T02:00:51.095Z,13.20
2022-12-29T02:03:25.696Z,13.20
2022-12-29T02:06:00.434Z,13.00
2022-12-29T02:08:33.331Z,12.90
2022-12-29T02:11:06.602Z,13.00
2022-12-29T02:13:36.839Z,13.10
2022-12-29T02:16:23.677Z,13.00
2022-12-29T02:19:03.184Z,13.00
2022-12-29T02:21:57.183Z,12.90
2022-12-29T02:24:59.805Z,12.90
2022-12-29T02:27:54.544Z,13.00
2022-12-29T02:30:47.225Z,14.10
2022-12-29T02:33:26.144Z,12.90
2022-12-29T02:36:08.698Z,12.90
2022-12-29T02:38:54.396Z,12.90
2022-12-29T02:41:30.875Z,12.90
2022-12-29T02:44:08.230Z,13.00
2022-12-29T02:46:48.590Z,13.10
2022-12-29T02:49:23.620Z,13.00
2022-12-29T02:52:00.157Z,13.00
2022-12-29T02:54:45.557Z,13.00
2022-12-29T02:57:18.522Z,13.10
2022-12-29T02:59:51.833Z,13.00
2022-12-29T03:02:48.236Z,13.00
2022-12-29T03:05:58.959Z,13.10
2022-12-29T03:08:39.711Z,13.00
2022-12-29T03:11:33.380Z,13.00
2022-12-29T03:14:23.597Z,13.00
2022-12-29T03:16:57.754Z,13.10
2022-12-29T03:19:34.684Z,13.20
2022-12-29T03:22:20.563Z,13.20
2022-12-29T03:24:54.975Z,13.20
2022-12-29T03:27:29.481Z,13.10
2022-12-29T03:30:03.347Z,13.00
2022-12-29T03:32:37.443Z,12.80
2022-12-29T03:35:14.010Z,12.70
2022-12-29T03:37:53.595Z,12.70
2022-12-29T03:40:27.442Z,12.70
2022-12-29T03:42:58.806Z,12.80
2022-12-29T03:45:29.186Z,12.70
2022-12-29T03:47:59.403Z,12.80
2022-12-29T03:50:32.202Z,12.90
2022-12-29T03:53:02.411Z,12.80
2022-12-29T03:55:32.676Z,12.70
2022-12-29T04:00:34.572Z,12.50
2022-12-29T04:03:04.826Z,12.50
2022-12-29T04:05:37.613Z,12.50
2022-12-29T04:08:07.923Z,12.40
2022-12-29T04:10:38.330Z,12.50
2022-12-29T04:13:08.769Z,12.30
2022-12-29T04:15:39.092Z,12.30
2022-12-29T04:18:09.405Z,12.30
2022-12-29T04:21:06.172Z,12.20
2022-12-29T04:23:38.488Z,12.30
2022-12-29T04:26:10.640Z,12.30
2022-12-29T04:28:41.082Z,12.30
2022-12-29T04:31:11.558Z,12.30
2022-12-29T04:33:41.799Z,12.20
2022-12-29T04:36:14.706Z,12.30
2022-12-29T04:38:45.083Z,12.40
2022-12-29T04:41:15.275Z,12.50
2022-12-29T04:43:45.564Z,12.40
2022-12-29T04:46:15.891Z,12.50
2022-12-29T04:48:46.218Z,12.50
2022-12-29T04:51:19.175Z,12.50
2022-12-29T04:53:49.435Z,12.60
2022-12-29T04:56:19.607Z,12.70
2022-12-29T04:58:49.822Z,12.60
2022-12-29T05:01:20.164Z,12.70
2022-12-29T05:03:50.471Z,12.60
2022-12-29T05:06:26.323Z,12.50
2022-12-29T05:08:56.732Z,12.50
2022-12-29T05:11:27.175Z,12.50
2022-12-29T05:13:57.299Z,12.50
2022-12-29T05:16:27.443Z,12.40
2022-12-29T05:18:57.645Z,11.80
2022-12-29T05:21:30.482Z,12.50
2022-12-29T05:24:00.543Z,12.50
2022-12-29T05:26:30.813Z,12.40
2022-12-29T05:29:01.079Z,12.50
2022-12-29T05:31:31.644Z,12.50
2022-12-29T05:34:01.754Z,12.60
2022-12-29T05:36:37.663Z,12.50
2022-12-29T05:39:08.840Z,12.40
2022-12-29T05:41:39.166Z,12.40
2022-12-29T05:44:09.570Z,12.50
2022-12-29T05:46:39.765Z,12.60
2022-12-29T05:49:10.564Z,12.40
2022-12-29T05:51:43.468Z,12.50
2022-12-29T05:54:13.757Z,12.50
2022-12-29T05:56:44.054Z,12.50
2022-12-29T05:59:14.409Z,12.30
2022-12-29T06:01:44.734Z,12.60
2022-12-29T06:04:18.042Z,12.60
2022-12-29T06:06:50.931Z,12.50
2022-12-29T06:09:24.385Z,12.50
2022-12-29T06:11:54.633Z,12.40
2022-12-29T06:14:24.919Z,12.30
2022-12-29T06:16:55.062Z,12.40
2022-12-29T06:19:25.313Z,12.50
2022-12-29T06:21:57.985Z,12.40
2022-12-29T06:24:28.185Z,12.50
2022-12-29T06:26:58.495Z,12.60
2022-12-29T06:29:29.178Z,12.40
2022-12-29T06:32:00.033Z,12.20
2022-12-29T06:34:30.527Z,12.20
2022-12-29T06:37:03.337Z,12.30
2022-12-29T06:39:33.764Z,12.40
2022-12-29T06:44:42.051Z,12.30
2022-12-29T06:47:12.215Z,12.30
2022-12-29T06:49:43.076Z,12.20
2022-12-29T06:52:15.892Z,12.20
2022-12-29T06:54:46.038Z,12.20
2022-12-29T06:57:16.138Z,12.30
2022-12-29T06:59:46.855Z,12.30
2022-12-29T07:02:19.820Z,12.40
2022-12-29T07:04:50.088Z,12.40
2022-12-29T07:07:23.152Z,12.50
2022-12-29T07:09:53.593Z,12.50
2022-12-29T07:12:23.816Z,12.60
2022-12-29T07:14:54.144Z,12.50
2022-12-29T07:17:24.237Z,12.40
2022-12-29T07:19:54.619Z,12.40
2022-12-29T07:22:27.655Z,12.20
2022-12-29T07:24:57.903Z,12.20
2022-12-29T07:27:28.155Z,12.00
2022-12-29T07:29:58.368Z,12.20
2022-12-29T07:32:28.587Z,12.40
2022-12-29T07:34:58.992Z,12.50
2022-12-29T07:37:31.842Z,12.50
2022-12-29T07:40:01.969Z,12.40
2022-12-29T07:42:32.280Z,12.50
2022-12-29T07:45:02.412Z,12.40
2022-12-29T07:47:32.587Z,12.40
2022-12-29T07:50:02.718Z,12.40
2022-12-29T07:52:35.543Z,12.40
2022-12-29T07:55:05.623Z,11.10
2022-12-29T07:57:35.837Z,12.50
2022-12-29T08:00:07.495Z,12.40
2022-12-29T08:02:37.629Z,12.40
2022-12-29T08:05:08.695Z,12.40
2022-12-29T08:07:41.593Z,12.50
2022-12-29T08:10:12.297Z,12.50
2022-12-29T08:12:43.092Z,12.40
2022-12-29T08:15:15.892Z,12.50
2022-12-29T08:17:46.011Z,12.30
2022-12-29T08:20:16.630Z,12.40
2022-12-29T08:22:49.339Z,12.30
2022-12-29T08:25:20.718Z,12.40
2022-12-29T08:27:50.954Z,12.30
2022-12-29T08:30:21.239Z,12.30
2022-12-29T08:32:51.540Z,12.40
2022-12-29T08:35:21.769Z,12.50
2022-12-29T08:37:54.680Z,12.40
2022-12-29T08:40:25.659Z,12.30
2022-12-29T08:42:55.745Z,12.40
2022-12-29T08:45:25.983Z,12.30
2022-12-29T08:47:56.068Z,12.30
2022-12-29T08:50:26.620Z,12.30
2022-12-29T08:52:59.381Z,12.20
2022-12-29T08:55:29.636Z,12.10
2022-12-29T08:57:59.831Z,11.80
2022-12-29T09:00:30.180Z,11.70
2022-12-29T09:03:00.549Z,11.70
2022-12-29T09:05:30.807Z,10.70
2022-12-29T09:08:03.586Z,11.40
2022-12-29T09:10:35.688Z,11.40
2022-12-29T09:13:05.788Z,11.30
2022-12-29T09:15:35.923Z,11.40
2022-12-29T09:18:06.114Z,11.30
2022-12-29T09:20:36.755Z,11.30
2022-12-29T09:23:10.095Z,11.30
2022-12-29T09:25:40.757Z,11.30
2022-12-29T09:28:10.866Z,11.30
2022-12-29T09:30:41.011Z,11.10
2022-12-29T09:35:55.297Z,11.10
2022-12-29T09:38:30.119Z,11.10
2022-12-29T09:41:05.249Z,11.10
2022-12-29T09:43:56.314Z,11.10
2022-12-29T09:46:29.632Z,11.10
2022-12-29T09:49:10.768Z,11.10
2022-12-29T09:54:43.429Z,11.20
2022-12-29T09:57:20.183Z,11.20
2022-12-29T09:59:53.992Z,11.20
2022-12-29T10:02:41.704Z,11.10
2022-12-29T10:05:25.716Z,11.20
2022-12-29T10:08:11.300Z,11.20
2022-12-29T10:10:54.919Z,11.30
2022-12-29T10:13:34.976Z,11.30
2022-12-29T10:16:13.796Z,11.30
2022-12-29T10:19:02.432Z,11.50
2022-12-29T10:21:42.702Z,11.30
2022-12-29T10:24:16.252Z,11.40
2022-12-29T10:26:52.056Z,11.60
2022-12-29T10:29:24.054Z,11.90
2022-12-29T10:32:01.379Z,12.10
2022-12-29T10:34:34.643Z,12.00
2022-12-29T10:37:09.729Z,12.20
2022-12-29T10:39:47.757Z,12.00
2022-12-29T10:42:30.001Z,11.90
2022-12-29T10:45:01.347Z,11.90
2022-12-29T10:47:39.100Z,11.80
2022-12-29T10:50:10.460Z,11.90
2022-12-29T10:52:43.159Z,11.90
2022-12-29T10:55:19.203Z,11.90
2022-12-29T10:57:52.828Z,12.00
2022-12-29T11:00:25.613Z,12.00
2022-12-29T11:03:13.074Z,12.20
2022-12-29T11:05:50.521Z,12.30
2022-12-29T11:08:23.960Z,12.70
2022-12-29T11:11:03.936Z,13.00
2022-12-29T11:13:39.370Z,13.10
2022-12-29T11:16:10.477Z,13.10
2022-12-29T11:18:44.861Z,12.90
2022-12-29T11:21:31.434Z,13.10
2022-12-29T11:24:03.780Z,13.10
2022-12-29T11:26:35.277Z,13.00
2022-12-29T11:32:20.276Z,12.80
2022-12-29T11:34:54.892Z,12.80
2022-12-29T11:37:35.086Z,12.80
2022-12-29T11:40:09.354Z,12.70
2022-12-29T11:42:41.760Z,12.80
2022-12-29T11:45:20.474Z,12.70
2022-12-29T11:47:53.827Z,12.80
2022-12-29T11:50:27.312Z,12.80
2022-12-29T11:53:03.243Z,12.70
2022-12-29T11:55:34.527Z,12.70
2022-12-29T11:58:07.861Z,12.90
2022-12-29T12:00:43.092Z,12.90
2022-12-29T12:03:20.700Z,13.00
2022-12-29T12:05:54.567Z,13.00
2022-12-29T12:08:35.886Z,12.90
2022-12-29T12:11:12.689Z,12.80
2022-12-29T12:13:49.201Z,12.60
2022-12-29T12:16:25.611Z,12.60
2022-12-29T12:19:00.958Z,12.60
2022-12-29T12:21:44.867Z,12.80
2022-12-29T12:24:38.537Z,12.80
2022-12-29T12:27:16.858Z,12.70
2022-12-29T12:29:54.990Z,12.50
2022-12-29T12:32:39.036Z,12.40
2022-12-29T12:35:14.489Z,12.20
2022-12-29T12:38:00.313Z,12.00
2022-12-29T12:40:41.887Z,11.30
2022-12-29T12:43:34.263Z,12.10
2022-12-29T12:46:17.122Z,12.10
2022-12-29T12:49:15.262Z,12.00
2022-12-29T12:51:59.442Z,12.10
2022-12-29T12:54:49.921Z,12.10
2022-12-29T12:57:25.909Z,12.00
2022-12-29T13:00:05.730Z,12.00
2022-12-29T13:02:48.271Z,13.00
2022-12-29T13:05:35.272Z,12.30
2022-12-29T13:08:40.318Z,12.60
2022-12-29T13:11:18.986Z,12.50
2022-12-29T13:14:18.012Z,12.40
2022-12-29T13:16:56.029Z,12.40
2022-12-29T13:19:37.614Z,12.50
2022-12-29T13:22:14.842Z,12.50
2022-12-29T13:24:59.461Z,12.50
2022-12-29T13:27:37.837Z,12.50
2022-12-29T13:30:13.284Z,12.60
2022-12-29T13:32:57.391Z,12.70
2022-12-29T13:35:39.662Z,12.40
2022-12-29T13:38:16.578Z,12.10
2022-12-29T13:40:50.828Z,12.10
2022-12-29T13:43:23.876Z,12.20
2022-12-29T13:46:02.560Z,12.30
2022-12-29T13:48:41.580Z,12.40
2022-12-29T13:51:14.468Z,12.30
2022-12-29T13:54:06.830Z,12.30
2022-12-29T13:56:51.933Z,12.20
2022-12-29T13:59:31.574Z,12.20
2022-12-29T14:02:12.060Z,12.20
2022-12-29T14:05:00.188Z,12.10
2022-12-29T14:07:31.274Z,12.10
2022-12-29T14:10:04.669Z,12.20
2022-12-29T14:12:42.471Z,12.00
2022-12-29T14:15:20.508Z,12.00
2022-12-29T14:18:07.645Z,12.00
2022-12-29T14:20:38.451Z,12.10
2022-12-29T14:23:21.260Z,12.10
2022-12-29T14:26:14.278Z,12.10
2022-12-29T14:28:46.704Z,12.00
2022-12-29T14:31:42.563Z,11.90
2022-12-29T14:34:34.997Z,11.90
2022-12-29T14:37:06.042Z,11.80
2022-12-29T14:39:42.343Z,11.70
2022-12-29T14:42:23.873Z,11.70
2022-12-29T14:44:56.616Z,11.70
2022-12-29T14:47:36.490Z,11.70
2022-12-29T14:50:10.222Z,11.70
2022-12-29T14:52:50.510Z,11.80
2022-12-29T14:55:41.534Z,11.70
2022-12-29T14:58:21.395Z,11.70
2022-12-29T15:00:52.336Z,11.70
2022-12-29T15:03:25.858Z,11.70
2022-12-29T15:05:58.657Z,11.80
2022-12-29T15:08:41.609Z,11.80
2022-12-29T15:11:17.877Z,11.60
2022-12-29T15:13:50.732Z,11.50
2022-12-29T15:16:29.497Z,11.50
2022-12-29T15:19:00.157Z,11.50
2022-12-29T15:21:33.583Z,11.40
2022-12-29T15:24:04.066Z,11.40
2022-12-29T15:26:41.215Z,11.30
2022-12-29T15:29:34.357Z,11.30
2022-12-29T15:32:16.192Z,11.10
2022-12-29T15:34:47.747Z,11.10
2022-12-29T15:37:26.355Z,11.20
2022-12-29T15:39:58.147Z,11.30
2022-12-29T15:42:53.401Z,11.30
2022-12-29T15:45:33.305Z,11.30
2022-12-29T15:48:03.872Z,11.20
2022-12-29T15:50:35.945Z,11.20
2022-12-29T15:53:07.208Z,11.30
2022-12-29T15:55:45.570Z,11.40
2022-12-29T15:58:24.177Z,11.30
2022-12-29T16:00:59.143Z,11.40
2022-12-29T16:03:31.369Z,11.40
2022-12-29T16:06:12.423Z,11.40
2022-12-29T16:08:44.359Z,11.50
2022-12-29T16:11:26.481Z,11.60
2022-12-29T16:13:58.542Z,11.60
2022-12-29T16:16:40.438Z,11.50
2022-12-29T16:19:18.091Z,11.30
2022-12-29T16:21:49.008Z,11.00
2022-12-29T16:24:21.774Z,10.90
2022-12-29T16:26:54.107Z,10.90
2022-12-29T16:29:25.628Z,11.00
2022-12-29T16:32:04.298Z,11.10
2022-12-29T16:34:36.860Z,11.00
2022-12-29T16:37:08.839Z,11.00
2022-12-29T16:40:00.400Z,10.80
2022-12-29T16:42:52.069Z,10.80
2022-12-29T16:46:10.495Z,10.80
2022-12-29T16:48:51.979Z,10.80
2022-12-29T16:51:27.780Z,10.80
2022-12-29T16:53:59.287Z,10.80
2022-12-29T16:56:32.582Z,10.70
2022-12-29T16:59:07.275Z,10.50
2022-12-29T17:01:40.713Z,10.40
2022-12-29T17:04:16.313Z,10.50
2022-12-29T17:06:54.073Z,10.80
2022-12-29T17:09:25.183Z,11.40
2022-12-29T17:12:02.955Z,10.80
2022-12-29T17:14:46.433Z,10.50
2022-12-29T17:17:24.269Z,10.50
2022-12-29T17:19:59.937Z,10.50
2022-12-29T17:22:31.761Z,10.50
2022-12-29T17:25:03.916Z,10.40
2022-12-29T17:27:38.746Z,10.40
2022-12-29T17:30:14.588Z,10.50
2022-12-29T17:32:45.759Z,10.50
2022-12-29T17:35:21.529Z,10.40
2022-12-29T17:37:52.370Z,10.30
2022-12-29T17:40:25.108Z,10.40
2022-12-29T17:42:57.560Z,10.30
2022-12-29T17:45:29.510Z,10.30
2022-12-29T17:48:01.751Z,10.40
2022-12-29T17:50:35.514Z,10.40
2022-12-29T17:53:07.700Z,10.50
2022-12-29T17:55:38.805Z,10.60
2022-12-29T17:58:17.900Z,10.60
2022-12-29T18:00:48.628Z,10.60
2022-12-29T18:03:19.856Z,10.50
2022-12-29T18:05:52.731Z,10.50
2022-12-29T18:08:22.941Z,10.50
2022-12-29T18:10:55.288Z,10.50
2022-12-29T18:13:35.754Z,10.70
2022-12-29T18:16:14.194Z,10.60
2022-12-29T18:18:44.458Z,10.60
2022-12-29T18:21:23.295Z,11.40
2022-12-29T18:23:54.254Z,10.50
2022-12-29T18:26:28.676Z,9.40
2022-12-29T18:28:59.399Z,10.40
2022-12-29T18:31:31.722Z,10.40
2022-12-29T18:34:03.728Z,10.50
2022-12-29T18:36:36.436Z,10.40
2022-12-29T18:39:06.630Z,10.30
2022-12-29T18:41:36.842Z,10.30
2022-12-29T18:44:07.016Z,10.30
2022-12-29T18:46:37.513Z,10.50
2022-12-29T18:49:07.682Z,10.50
2022-12-29T18:51:40.933Z,10.50
2022-12-29T18:54:18.787Z,10.50
2022-12-29T18:56:48.897Z,10.60
2022-12-29T18:59:19.004Z,10.50
2022-12-29T19:01:49.301Z,10.40
2022-12-29T19:04:19.719Z,10.50
2022-12-29T19:06:52.553Z,10.40
2022-12-29T19:09:22.741Z,10.50
2022-12-29T19:11:52.982Z,10.60
2022-12-29T19:14:23.120Z,10.50
2022-12-29T19:16:53.800Z,10.40
2022-12-29T19:19:23.943Z,10.50
2022-12-29T19:21:58.266Z,10.50
2022-12-29T19:24:28.440Z,10.50
2022-12-29T19:26:58.751Z,10.50
2022-12-29T19:29:29.065Z,10.50
2022-12-29T19:31:59.361Z,10.50
2022-12-29T19:34:29.642Z,10.40
2022-12-29T19:37:02.527Z,10.40
2022-12-29T19:39:32.624Z,10.40
2022-12-29T19:42:05.506Z,10.40
2022-12-29T19:44:35.862Z,10.40
2022-12-29T19:47:05.951Z,10.20
2022-12-29T19:49:37.235Z,10.00
2022-12-29T19:52:09.812Z,10.10
2022-12-29T19:54:39.965Z,10.20
2022-12-29T19:57:10.063Z,10.20
2022-12-29T19:59:40.891Z,10.20
2022-12-29T20:02:23.080Z,10.30
2022-12-29T20:04:53.904Z,10.20
2022-12-29T20:07:27.147Z,10.20
2022-12-29T20:09:57.434Z,10.10
2022-12-29T20:12:29.420Z,10.20
2022-12-29T20:14:59.880Z,10.30
2022-12-29T20:18:02.387Z,10.30
2022-12-29T20:20:20.733Z,10.20
2022-12-29T20:22:53.599Z,10.10
2022-12-29T20:28:14.642Z,10.20
2022-12-29T20:30:44.823Z,10.20
2022-12-29T20:33:15.622Z,10.30
2022-12-29T20:35:45.802Z,10.20
2022-12-29T20:38:18.777Z,10.30
2022-12-29T20:40:49.299Z,10.20
2022-12-29T20:43:19.850Z,10.20
2022-12-29T20:45:51.342Z,10.00
2022-12-29T20:48:21.656Z,10.00
2022-12-29T20:50:52.087Z,10.00
2022-12-29T20:53:24.861Z,10.00
2022-12-29T20:55:55.070Z,10.00
2022-12-29T20:58:25.623Z,9.90
2022-12-29T21:00:56.322Z,10.00
2022-12-29T21:03:27.566Z,10.00
2022-12-29T21:05:58.132Z,10.60
2022-12-29T21:08:31.761Z,9.90
2022-12-29T21:11:02.487Z,9.80
2022-12-29T21:13:33.740Z,9.80
2022-12-29T21:16:05.921Z,9.90
2022-12-29T21:18:36.767Z,10.00
2022-12-29T21:21:09.032Z,10.20
2022-12-29T21:23:43.920Z,10.10
2022-12-29T21:26:17.209Z,10.10
2022-12-29T21:28:47.490Z,10.00
2022-12-29T21:31:27.753Z,9.90
2022-12-29T21:33:58.923Z,10.00
2022-12-29T21:36:30.117Z,9.80
2022-12-29T21:39:03.697Z,9.60
2022-12-29T21:41:35.137Z,9.60
2022-12-29T21:44:17.312Z,9.60
2022-12-29T21:46:47.544Z,9.60
2022-12-29T21:49:17.825Z,9.60
2022-12-29T21:51:54.310Z,9.60
2022-12-29T21:55:24.356Z,9.60
2022-12-29T22:01:36.506Z,9.60
2022-12-29T22:04:19.115Z,9.70
2022-12-29T22:07:01.603Z,9.60
2022-12-29T22:09:44.196Z,10.90
2022-12-29T22:12:26.789Z,9.60
2022-12-29T22:14:57.194Z,9.70
2022-12-29T22:17:32.776Z,9.60
2022-12-29T22:20:07.108Z,9.60
2022-12-29T22:22:37.192Z,9.60
2022-12-29T22:25:08.927Z,9.70
2022-12-29T22:27:39.228Z,9.70
2022-12-29T22:30:10.921Z,9.70
2022-12-29T22:32:43.916Z,9.70
2022-12-29T22:35:15.131Z,9.70
2022-12-29T22:37:46.299Z,9.60
2022-12-29T22:40:16.679Z,9.60
2022-12-29T22:42:46.831Z,9.70
2022-12-29T22:45:17.113Z,9.80
2022-12-29T22:47:49.789Z,9.60
2022-12-29T22:50:20.070Z,9.60
2022-12-29T22:52:50.187Z,9.50
2022-12-29T22:55:20.414Z,9.30
2022-12-29T22:57:50.586Z,9.30
2022-12-29T23:00:21.152Z,9.40
2022-12-29T23:02:54.140Z,9.50
2022-12-29T23:05:24.300Z,9.60
2022-12-29T23:07:54.441Z,9.60
2022-12-29T23:10:24.496Z,9.50
2022-12-29T23:12:54.807Z,9.50
2022-12-29T23:15:24.950Z,9.60
2022-12-29T23:17:57.710Z,9.60
2022-12-29T23:20:27.822Z,9.50
2022-12-29T23:22:58.073Z,9.50
2022-12-29T23:25:28.203Z,9.60
2022-12-29T23:27:58.342Z,9.60
2022-12-29T23:30:28.460Z,9.50
2022-12-29T23:33:01.325Z,9.60
2022-12-29T23:35:31.432Z,9.70
2022-12-29T23:38:01.833Z,9.80
2022-12-29T23:40:31.956Z,9.80
2022-12-29T23:43:02.166Z,9.80
2022-12-29T23:45:32.227Z,9.80
2022-12-29T23:48:05.253Z,9.70
2022-12-29T23:50:36.477Z,9.80
2022-12-29T23:53:06.575Z,9.90
2022-12-29T23:55:36.714Z,9.90
2022-12-29T23:58:06.865Z,9.80
